| time (UTC) | temp C | wind direction | speed KPH | gust KPH | rain 1hr cm | rain 24hr cm | rain mn cm | humidity % | barometer mb |
| 20260906093107 | 20 | 338 | 3.2 | 9.7 | 0.00 | 1.32 | 0.00 | 78 | 1019.9 |
| 20260906091550 | 20 | 29 | 3.2 | 9.7 | 0.00 | 1.32 | 0.00 | 78 | 1020.1 |
| 20260906090058 | 20 | 360 | 1.6 | 6.4 | 0.00 | 1.32 | 0.00 | 79 | 1020.0 |
| 20260906084554 | 20 | 345 | 1.6 | 9.7 | 0.00 | 1.32 | 0.00 | 81 | 1020.2 |
| 20260906083050 | 20 | 319 | 1.6 | 6.4 | 0.00 | 1.32 | 0.00 | 83 | 1020.1 |
| 20260906081545 | 20 | 52 | 1.6 | 4.8 | 0.00 | 1.32 | 0.00 | 82 | 1020.2 |
| 20260906080045 | 20 | 10 | 0.0 | 3.2 | 0.00 | 1.32 | 0.00 | 82 | 1019.9 |
| 20260906074559 | 20 | 21 | 1.6 | 4.8 | 0.00 | 1.32 | 0.00 | 80 | 1019.8 |
| 20260906073049 | 20 | 0 | 0.0 | 0.0 | 0.00 | 1.32 | 0.00 | 81 | 1019.8 |
| 20260906071557 | 20 | 0 | 0.0 | 0.0 | 0.00 | 1.32 | 0.00 | 81 | 1020.0 |
| 20260906070052 | 20 | 0 | 0.0 | 0.0 | 0.00 | 1.32 | 0.00 | 80 | 1020.0 |
| 20260906064549 | 20 | 0 | 0.0 | 0.0 | 0.00 | 1.32 | 0.00 | 81 | 1020.2 |
| 20260906063057 | 20 | 0 | 0.0 | 0.0 | 0.00 | 1.32 | 0.00 | 78 | 1020.3 |
| 20260906061558 | 21 | 0 | 0.0 | 3.2 | 0.00 | 1.32 | 0.00 | 79 | 1020.1 |
| 20260906060056 | 21 | 360 | 1.6 | 8.0 | 0.00 | 1.32 | 0.00 | 79 | 1020.2 |
| 20260906054557 | 20 | 360 | 3.2 | 6.4 | 0.00 | 1.32 | 0.00 | 82 | 1020.7 |
| 20260906053056 | 20 | 0 | 0.0 | 3.2 | 0.00 | 1.32 | 0.00 | 84 | 1021.1 |
| 20260906051553 | 20 | 0 | 0.0 | 3.2 | 0.00 | 1.32 | 0.00 | 83 | 1021.3 |
| 20260906050119 | 21 | 0 | 1.6 | 6.4 | 0.00 | 1.32 | 0.00 | 82 | 1021.4 |
| 20260906044546 | 21 | 360 | 1.6 | 4.8 | 0.00 | 1.32 | 0.00 | 82 | 1021.1 |
| 20260906043054 | 20 | 331 | 0.0 | 6.4 | 0.00 | 1.32 | 0.00 | 85 | 1021.2 |
| 20260906041554 | 20 | 0 | 0.0 | 1.6 | 0.00 | 1.32 | 0.00 | 86 | 1021.4 |
| 20260906040047 | 20 | 92 | 0.0 | 3.2 | 0.00 | 1.32 | 0.00 | 84 | 1021.3 |
| 20260906034553 | 20 | 0 | 0.0 | 1.6 | 0.00 | 1.32 | 1.32 | 84 | 1021.5 |
| 20260906033103 | 20 | 0 | 0.0 | 1.6 | 0.00 | 1.32 | 1.32 | 84 | 1021.6 |
| 20260906031550 | 20 | 92 | 0.0 | 1.6 | 0.00 | 1.32 | 1.32 | 83 | 1021.7 |
| 20260906030047 | 21 | 0 | 0.0 | 0.0 | 0.00 | 1.32 | 1.32 | 83 | 1021.6 |
| 20260906024601 | 21 | 0 | 0.0 | 3.2 | 0.00 | 1.32 | 1.32 | 82 | 1021.6 |
| 20260906023057 | 20 | 0 | 0.0 | 3.2 | 0.00 | 1.32 | 1.32 | 83 | 1021.6 |
| 20260906021555 | 21 | 94 | 1.6 | 4.8 | 0.00 | 1.32 | 1.32 | 82 | 1021.4 |
| 20260906020053 | 21 | 360 | 3.2 | 12.9 | 0.00 | 1.32 | 1.32 | 79 | 1021.1 |
| 20260906014601 | 21 | 11 | 4.8 | 16.1 | 0.00 | 1.32 | 1.32 | 81 | 1020.9 |
| 20260906013056 | 21 | 360 | 3.2 | 8.0 | 0.00 | 1.32 | 1.32 | 82 | 1020.8 |
| 20260906011558 | 21 | 349 | 3.2 | 12.9 | 0.00 | 1.32 | 1.32 | 81 | 1020.9 |
| 20260906010055 | 21 | 21 | 4.8 | 16.1 | 0.00 | 1.32 | 1.32 | 81 | 1020.8 |
| 20260906004551 | 21 | 329 | 4.8 | 12.9 | 0.00 | 1.32 | 1.32 | 80 | 1020.6 |
| 20260906003058 | 21 | 360 | 4.8 | 12.9 | 0.00 | 1.32 | 1.32 | 82 | 1020.3 |
| 20260906001554 | 21 | 360 | 1.6 | 6.4 | 0.00 | 1.32 | 1.32 | 84 | 1020.4 |
| 20260906000053 | 21 | 26 | 3.2 | 9.7 | 0.00 | 1.32 | 1.32 | 84 | 1020.6 |
| 20260905234604 | 20 | 360 | 3.2 | 9.7 | 0.00 | 1.32 | 1.32 | 83 | 1020.5 |
| 20260905233053 | 20 | 0 | 0.0 | 1.6 | 0.00 | 1.32 | 1.32 | 87 | 1020.6 |
| 20260905231555 | 20 | 0 | 0.0 | 6.4 | 0.00 | 1.32 | 1.32 | 86 | 1020.4 |
| 20260905230110 | 20 | 311 | 1.6 | 4.8 | 0.00 | 1.32 | 1.32 | 83 | 1020.2 |
| 20260905224554 | 20 | 360 | 1.6 | 8.0 | 0.00 | 1.32 | 1.32 | 81 | 1020.2 |
| 20260905223050 | 21 | 360 | 3.2 | 8.0 | 0.00 | 1.32 | 1.32 | 78 | 1020.2 |
| 20260905221557 | 21 | 360 | 4.8 | 12.9 | 0.00 | 1.32 | 1.32 | 78 | 1020.2 |
| 20260905220056 | 21 | 344 | 4.8 | 17.7 | 0.00 | 1.32 | 1.32 | 79 | 1020.6 |
| 20260905214558 | 21 | 360 | 4.8 | 14.5 | 0.00 | 1.32 | 1.32 | 80 | 1020.5 |
| 20260905213053 | 20 | 41 | 6.4 | 19.3 | 0.00 | 1.32 | 1.32 | 81 | 1020.6 |
| 20260905211558 | 20 | 80 | 8.0 | 16.1 | 0.00 | 1.32 | 1.32 | 81 | 1020.7 |
| 20260905210100 | 19 | 0 | 1.6 | 4.8 | 0.00 | 1.32 | 1.32 | 87 | 1020.8 |
| 20260905204555 | 18 | 0 | 0.0 | 4.8 | 0.00 | 1.32 | 1.32 | 93 | 1021.1 |
| 20260905203057 | 18 | 0 | 0.0 | 3.2 | 0.00 | 1.32 | 1.32 | 91 | 1021.0 |
| 20260905201554 | 19 | 0 | 0.0 | 1.6 | 0.05 | 1.32 | 1.32 | 88 | 1021.3 |
| 20260905200057 | 18 | 159 | 1.6 | 3.2 | 1.32 | 1.32 | 1.32 | 96 | 1021.6 |
| 20260905194555 | 17 | 159 | 1.6 | 3.2 | 1.32 | 1.32 | 1.32 | 94 | 1021.7 |
| 20260905193110 | 17 | 160 | 3.2 | 6.4 | 1.32 | 1.32 | 1.32 | 92 | 1022.4 |
| 20260905191601 | 19 | 144 | 1.6 | 12.9 | 1.30 | 1.30 | 1.30 | 86 | 1022.9 |
| 20260905190104 | 25 | 84 | 3.2 | 8.0 | 0.00 | 0.00 | 0.00 | 70 | 1022.0 |
| 20260905183059 | 26 | 360 | 1.6 | 4.8 | 0.00 | 0.08 | 0.00 | 74 | 1021.7 |
| 20260905181553 | 26 | 9 | 1.6 | 9.7 | 0.00 | 0.08 | 0.00 | 69 | 1021.9 |
| 20260905180051 | 26 | 286 | 1.6 | 6.4 | 0.00 | 0.08 | 0.00 | 70 | 1022.1 |
| 20260905174600 | 26 | 238 | 1.6 | 8.0 | 0.00 | 0.18 | 0.00 | 76 | 1022.5 |
| 20260905173052 | 26 | 360 | 1.6 | 6.4 | 0.00 | 0.18 | 0.00 | 75 | 1022.7 |
| 20260905171548 | 26 | 316 | 0.0 | 6.4 | 0.00 | 0.18 | 0.00 | 76 | 1022.7 |
| 20260905170054 | 25 | 298 | 1.6 | 6.4 | 0.00 | 0.18 | 0.00 | 78 | 1022.7 |
| 20260905164553 | 25 | 271 | 1.6 | 6.4 | 0.00 | 0.18 | 0.00 | 79 | 1023.1 |
| 20260905163101 | 25 | 267 | 1.6 | 6.4 | 0.00 | 0.18 | 0.00 | 78 | 1023.3 |
| 20260905161556 | 25 | 352 | 0.0 | 8.0 | 0.00 | 0.18 | 0.00 | 78 | 1023.1 |
| 20260905160058 | 25 | 24 | 1.6 | 6.4 | 0.00 | 0.18 | 0.00 | 77 | 1023.3 |
| 20260905154602 | 24 | 301 | 0.0 | 6.4 | 0.00 | 0.18 | 0.00 | 78 | 1023.3 |
| 20260905153056 | 24 | 301 | 1.6 | 11.3 | 0.00 | 0.18 | 0.00 | 77 | 1023.4 |
| 20260905151554 | 23 | 265 | 1.6 | 8.0 | 0.00 | 0.18 | 0.00 | 81 | 1023.5 |
| 20260905144558 | 23 | 317 | 3.2 | 9.7 | 0.00 | 0.18 | 0.00 | 80 | 1023.4 |
| 20260905143055 | 22 | 331 | 1.6 | 11.3 | 0.00 | 0.18 | 0.00 | 82 | 1023.2 |
| 20260905141550 | 22 | 309 | 3.2 | 11.3 | 0.00 | 0.18 | 0.00 | 81 | 1023.3 |
| 20260905134552 | 22 | 329 | 4.8 | 14.5 | 0.00 | 0.18 | 0.00 | 81 | 1023.4 |
| 20260905133051 | 22 | 34 | 3.2 | 16.1 | 0.00 | 0.18 | 0.00 | 81 | 1023.6 |
| 20260905131546 | 22 | 55 | 4.8 | 14.5 | 0.00 | 0.18 | 0.00 | 81 | 1023.4 |
| 20260905130053 | 22 | 45 | 6.4 | 16.1 | 0.00 | 0.18 | 0.00 | 82 | 1023.3 |
| 20260905124554 | 21 | 360 | 4.8 | 14.5 | 0.00 | 0.18 | 0.00 | 83 | 1023.3 |
| 20260905123050 | 21 | 64 | 4.8 | 14.5 | 0.00 | 0.18 | 0.00 | 82 | 1023.2 |
| 20260905121601 | 21 | 360 | 4.8 | 11.3 | 0.00 | 0.18 | 0.00 | 81 | 1023.0 |
| 20260905120054 | 21 | 34 | 6.4 | 17.7 | 0.00 | 0.18 | 0.00 | 81 | 1023.0 |
| 20260905114549 | 21 | 17 | 3.2 | 14.5 | 0.00 | 0.18 | 0.00 | 83 | 1022.8 |
| 20260905113104 | 21 | 360 | 3.2 | 12.9 | 0.00 | 0.18 | 0.00 | 83 | 1022.6 |
| 20260905111552 | 21 | 278 | 1.6 | 8.0 | 0.00 | 0.18 | 0.00 | 83 | 1022.4 |
| 20260905110052 | 20 | 279 | 0.0 | 9.7 | 0.00 | 0.18 | 0.00 | 83 | 1022.4 |
| 20260905104548 | 21 | 337 | 1.6 | 6.4 | 0.00 | 0.18 | 0.00 | 83 | 1022.2 |
| 20260905103059 | 21 | 360 | 1.6 | 8.0 | 0.00 | 0.18 | 0.00 | 80 | 1022.2 |
| 20260905101554 | 21 | 321 | 3.2 | 12.9 | 0.00 | 0.18 | 0.00 | 80 | 1022.1 |
| 20260905100057 | 21 | 19 | 4.8 | 11.3 | 0.00 | 0.18 | 0.00 | 80 | 1022.1 |
| 20260905094550 | 21 | 360 | 3.2 | 9.7 | 0.00 | 0.18 | 0.00 | 79 | 1021.9 |